Terminal Aerodrome Forecast
Issued by NWS Duluth, MN

Home | Current Version | Previous Version | Text Only | Print | Product List | Glossary On
Versions: 1 2 3 4 5 6 7 8 9 10 11 12 13 14 15 16 17 18 19 20 21 22 23 24 25 26 27 28 29
000
FTUS43 KDLH 212300 AAA
TAFDLH
TAF AMD
KDLH 212322Z 2123/2218 21016KT P6SM OVC120 WS020/24040KT
      TEMPO 2123/2203 22018G30KT
     FM221000 23014KT P6SM BKN018 OVC100 WS020/26040KT
     FM221400 23010KT 6SM -DZ BR OVC015=

USA.gov is the U.S. government's official web portal to all federal, state and local government web resources and services.